Hlavní strana
METAR-TAF:

METAR-TAF

Letiště :

Medicine Hat, Alberta, Kanada

zeměpisná šířka: 50-01N, zeměpisná délka: 110-43W, výška: 717 m

Aktuální stav počasí

Zpráva byla vytvořena před 45 minutami, v 14:00 UTC
Jihozápadní vítr 8 kt
Teplota -1°C
Vlhkost vzduchu 69%
Tlak 1013 hPa
Viditelnost: 48.3 km
Jasno

METAR: CYXH 281400Z 22008KT 30SM SKC M01/M06 A2991 RMK SLP157

Čas: 07:45 (14:45 UTC)

Předpověď počasí

Zpráva byla vytvořena před 3 hodinami a 4 minutami, v 11:41 UTC
Předpověď platná od 28 v 12 UTC do 28 v 24 UTC
Jihozápadní vítr 10 kt
Viditelnost: 10 km
Skoro jasno ve výšce 20000 ft
Od 28 v 1900 UTC
Jihozápadní vítr 8 kt
Viditelnost: 10 km
Skoro jasno ve výšce 6000 ft
Polojasno ve výšce 12000 ft
Oblačno až skoro zataženo ve výšce 20000 ft

TAF: CYXH 281141Z 2812/2824 22010KT P6SM FEW200 FM281900 22008KT P6SM FEW060 SCT120 BKN200 RMK FCST BASED ON AUTO OBS. NXT FCST BY 281800Z

Stav a předpovědi počasí z více než 4 000 letišť (zprávy METAR a TAF).

Červené a žluté tečky na mapě představují dostupné meteorologické stanice.

Když kurzor umístíte na tečku, zobrazí se název stanice.

Pak kliknutím zobrazíte stav a předpověď počasí.

Chcete-li změnit mapu, kliknutím na zelené tlačítko se znaménkem +mapu přiblížíte, kliknutím na zelené tlačítko se znaménkem – mapu oddálíte a kliknutím na zelené šipky přejdete na sousední mapy.


METAR-TAF: